Silver Lake, Minnesota
Current Conditions -  °F | °C
As of 6:52 AM on Wednesday 22 Oct 2014 (Local Time) from KHCD Reporting Station
Broken Clouds Broken Clouds  
Wind Chill: 36°   Ceiling: 5000
Heat Index: 43°   Visibility: 10mi
Dew Point: 39°   Wind: 15mph
Humidity: 84%   Direction: 130°SE
Pressure: 30.13"   Gusts: 21mph
Location:  44.9°N, 94.2°W
Report Text: KHCD 221152Z AUTO 13013G18KT 10SM BKN050 06/04 A3013 RMK AO2 LTG DSNT W T00630038
Loading
Personal Weather Stations






























Interactive Weather Map
Tropical Storm Tracking
New forecast layout! Learn more

10-Day Weather Forecast

Advertisements
Track Severe Weather on mobile